To NAV CANADA Home Page Login to a new session Search on AWWS site Feedback and Comments Disclaimer Vers la page française équivalente Tips FAQ What's new on the site To the Forecasts and Observations / NOTAM section To "File a Flight Plan" website Publications and other links Update of the User's profile FIC Telephone Numbers My Weather Data Folder Route Weather Data Regional Weather Data Local Weather Data To the Forecasts and Observations / NOTAM section
Request Generated 04/23/2014 at 22:04:11 UTC . Weather information available at that time is displayed.

METAR/TAF

HAY RIVER/MERLYN CARTER AIRPORT/NT    

METAR CYHY 232200Z 07009KT 15SM BKN100 BKN230 01/M02 A3005 RMK AS2CS0 SLP190=
METAR CYHY 232100Z 07013KT 15SM SCT020 BKN100 BKN230 M00/M02 A3006 RMK SC3AC2CI0 SLP193=
METAR CYHY 232000Z 06011KT 15SM SCT020 BKN100 BKN230 M01/M03 A3006 RMK SC3AC2CI0 SLP192=

TAF CYHY 231738Z 2318/2406 06015G25KT P6SM FEW080 BKN200
FM232300 06015G25KT P6SM FEW030 BKN080
RMK NXT FCST BY 240000Z=
Your time UTC time
Weather data provided by Environment Canada and NAV CANADA